sensor_id;sensor_type;location;lat;lon;timestamp;P1;durP1;ratioP1;P2;durP2;ratioP2
34978;SDS011;21185;50.978;13.720;2023-03-01T00:00:22;28.17;;;12.35;;
34978;SDS011;21185;50.978;13.720;2023-03-01T00:05:24;29.17;;;11.68;;
34978;SDS011;21185;50.978;13.720;2023-03-01T00:10:26;26.83;;;10.93;;
34978;SDS011;21185;50.978;13.720;2023-03-01T00:15:28;26.10;;;11.63;;
34978;SDS011;21185;50.978;13.720;2023-03-01T00:20:30;24.52;;;11.82;;
34978;SDS011;21185;50.978;13.720;2023-03-01T00:25:32;27.02;;;12.68;;
34978;SDS011;21185;50.978;13.720;2023-03-01T00:30:34;29.10;;;13.07;;
34978;SDS011;21185;50.978;13.720;2023-03-01T00:35:36;37.92;;;14.57;;
34978;SDS011;21185;50.978;13.720;2023-03-01T00:40:38;28.98;;;13.15;;
34978;SDS011;21185;50.978;13.720;2023-03-01T00:45:40;32.35;;;13.35;;
34978;SDS011;21185;50.978;13.720;2023-03-01T00:50:42;28.85;;;11.85;;
34978;SDS011;21185;50.978;13.720;2023-03-01T00:55:44;36.13;;;13.52;;
34978;SDS011;21185;50.978;13.720;2023-03-01T01:00:46;31.63;;;13.25;;
34978;SDS011;21185;50.978;13.720;2023-03-01T01:05:49;28.08;;;12.38;;
34978;SDS011;21185;50.978;13.720;2023-03-01T01:10:51;25.33;;;11.63;;
34978;SDS011;21185;50.978;13.720;2023-03-01T01:15:53;27.23;;;11.48;;
34978;SDS011;21185;50.978;13.720;2023-03-01T01:20:56;35.05;;;12.85;;
34978;SDS011;21185;50.978;13.720;2023-03-01T01:26:02;30.52;;;11.80;;
34978;SDS011;21185;50.978;13.720;2023-03-01T01:31:15;33.83;;;13.03;;
34978;SDS011;21185;50.978;13.720;2023-03-01T01:36:17;24.35;;;11.52;;
34978;SDS011;21185;50.978;13.720;2023-03-01T01:41:19;34.75;;;11.82;;
34978;SDS011;21185;50.978;13.720;2023-03-01T01:46:30;29.10;;;12.63;;
34978;SDS011;21185;50.978;13.720;2023-03-01T01:51:36;28.98;;;12.52;;
34978;SDS011;21185;50.978;13.720;2023-03-01T01:56:41;27.15;;;11.95;;
34978;SDS011;21185;50.978;13.720;2023-03-01T02:01:47;31.55;;;13.30;;
34978;SDS011;21185;50.978;13.720;2023-03-01T02:07:23;29.05;;;12.05;;
34978;SDS011;21185;50.978;13.720;2023-03-01T02:12:21;36.15;;;14.02;;
34978;SDS011;21185;50.978;13.720;2023-03-01T02:17:26;30.10;;;13.13;;
34978;SDS011;21185;50.978;13.720;2023-03-01T02:22:28;34.55;;;13.65;;
34978;SDS011;21185;50.978;13.720;2023-03-01T02:27:36;36.60;;;15.50;;
34978;SDS011;21185;50.978;13.720;2023-03-01T02:32:45;29.63;;;14.18;;
34978;SDS011;21185;50.978;13.720;2023-03-01T02:37:47;32.28;;;12.50;;
34978;SDS011;21185;50.978;13.720;2023-03-01T02:42:51;34.03;;;13.85;;
34978;SDS011;21185;50.978;13.720;2023-03-01T02:47:57;25.55;;;14.25;;
34978;SDS011;21185;50.978;13.720;2023-03-01T02:53:17;32.17;;;13.00;;
34978;SDS011;21185;50.978;13.720;2023-03-01T02:58:41;32.08;;;13.25;;
34978;SDS011;21185;50.978;13.720;2023-03-01T03:03:53;29.60;;;11.82;;
34978;SDS011;21185;50.978;13.720;2023-03-01T03:08:55;23.42;;;11.32;;
34978;SDS011;21185;50.978;13.720;2023-03-01T03:13:57;44.10;;;14.05;;
34978;SDS011;21185;50.978;13.720;2023-03-01T03:18:59;27.98;;;12.50;;
34978;SDS011;21185;50.978;13.720;2023-03-01T03:24:06;40.53;;;14.75;;
34978;SDS011;21185;50.978;13.720;2023-03-01T03:29:08;30.98;;;14.10;;
34978;SDS011;21185;50.978;13.720;2023-03-01T03:34:10;32.65;;;13.90;;
34978;SDS011;21185;50.978;13.720;2023-03-01T03:39:19;32.80;;;15.32;;
34978;SDS011;21185;50.978;13.720;2023-03-01T03:44:26;31.20;;;13.73;;
34978;SDS011;21185;50.978;13.720;2023-03-01T03:49:28;34.80;;;12.50;;
34978;SDS011;21185;50.978;13.720;2023-03-01T03:54:30;30.90;;;12.70;;
34978;SDS011;21185;50.978;13.720;2023-03-01T03:59:32;34.40;;;12.35;;
34978;SDS011;21185;50.978;13.720;2023-03-01T04:04:34;24.63;;;11.75;;
34978;SDS011;21185;50.978;13.720;2023-03-01T04:09:36;28.08;;;12.80;;
34978;SDS011;21185;50.978;13.720;2023-03-01T04:14:38;32.72;;;13.38;;
34978;SDS011;21185;50.978;13.720;2023-03-01T04:19:40;30.38;;;13.73;;
34978;SDS011;21185;50.978;13.720;2023-03-01T04:24:41;28.65;;;13.48;;
34978;SDS011;21185;50.978;13.720;2023-03-01T04:29:43;46.00;;;17.13;;
34978;SDS011;21185;50.978;13.720;2023-03-01T04:34:45;30.63;;;14.02;;
34978;SDS011;21185;50.978;13.720;2023-03-01T04:39:47;48.40;;;18.48;;
34978;SDS011;21185;50.978;13.720;2023-03-01T04:44:49;63.55;;;21.60;;
34978;SDS011;21185;50.978;13.720;2023-03-01T04:49:52;61.72;;;21.65;;
34978;SDS011;21185;50.978;13.720;2023-03-01T04:54:54;60.40;;;20.00;;
34978;SDS011;21185;50.978;13.720;2023-03-01T04:59:59;55.92;;;18.90;;
34978;SDS011;21185;50.978;13.720;2023-03-01T05:05:01;39.20;;;17.63;;
34978;SDS011;21185;50.978;13.720;2023-03-01T05:10:02;45.60;;;18.27;;
34978;SDS011;21185;50.978;13.720;2023-03-01T05:15:05;47.22;;;18.48;;
34978;SDS011;21185;50.978;13.720;2023-03-01T05:20:08;44.55;;;18.42;;
34978;SDS011;21185;50.978;13.720;2023-03-01T05:25:11;50.33;;;19.85;;
34978;SDS011;21185;50.978;13.720;2023-03-01T05:30:15;65.53;;;22.70;;
34978;SDS011;21185;50.978;13.720;2023-03-01T05:35:18;81.40;;;26.52;;
34978;SDS011;21185;50.978;13.720;2023-03-01T05:40:21;38.03;;;15.88;;
34978;SDS011;21185;50.978;13.720;2023-03-01T05:45:26;34.38;;;15.70;;
34978;SDS011;21185;50.978;13.720;2023-03-01T05:50:29;35.13;;;14.93;;
34978;SDS011;21185;50.978;13.720;2023-03-01T05:55:34;37.42;;;16.42;;
34978;SDS011;21185;50.978;13.720;2023-03-01T06:00:36;46.13;;;18.52;;
34978;SDS011;21185;50.978;13.720;2023-03-01T06:05:39;48.97;;;19.13;;
34978;SDS011;21185;50.978;13.720;2023-03-01T06:10:42;47.67;;;17.55;;
34978;SDS011;21185;50.978;13.720;2023-03-01T06:15:44;45.03;;;17.65;;
34978;SDS011;21185;50.978;13.720;2023-03-01T06:20:51;48.90;;;17.77;;
34978;SDS011;21185;50.978;13.720;2023-03-01T06:25:57;38.13;;;16.92;;
34978;SDS011;21185;50.978;13.720;2023-03-01T06:30:59;37.88;;;17.55;;
34978;SDS011;21185;50.978;13.720;2023-03-01T06:36:01;42.72;;;16.38;;
34978;SDS011;21185;50.978;13.720;2023-03-01T06:41:03;37.05;;;16.73;;
34978;SDS011;21185;50.978;13.720;2023-03-01T06:46:05;36.20;;;16.92;;
34978;SDS011;21185;50.978;13.720;2023-03-01T06:51:08;40.17;;;16.95;;
34978;SDS011;21185;50.978;13.720;2023-03-01T06:56:10;42.13;;;16.90;;
34978;SDS011;21185;50.978;13.720;2023-03-01T07:01:12;47.45;;;18.70;;
34978;SDS011;21185;50.978;13.720;2023-03-01T07:06:14;40.15;;;19.38;;
34978;SDS011;21185;50.978;13.720;2023-03-01T07:11:16;59.55;;;22.10;;
34978;SDS011;21185;50.978;13.720;2023-03-01T07:16:18;60.75;;;23.45;;
34978;SDS011;21185;50.978;13.720;2023-03-01T07:21:21;97.97;;;38.88;;
34978;SDS011;21185;50.978;13.720;2023-03-01T07:26:47;38.65;;;19.17;;
34978;SDS011;21185;50.978;13.720;2023-03-01T07:31:52;48.53;;;17.98;;
34978;SDS011;21185;50.978;13.720;2023-03-01T07:36:56;30.08;;;14.27;;
34978;SDS011;21185;50.978;13.720;2023-03-01T07:41:58;34.63;;;15.82;;
34978;SDS011;21185;50.978;13.720;2023-03-01T07:47:00;32.70;;;15.40;;
34978;SDS011;21185;50.978;13.720;2023-03-01T07:52:02;36.95;;;14.82;;
34978;SDS011;21185;50.978;13.720;2023-03-01T07:57:04;29.27;;;13.85;;
34978;SDS011;21185;50.978;13.720;2023-03-01T08:02:07;32.83;;;14.38;;
34978;SDS011;21185;50.978;13.720;2023-03-01T08:07:10;35.22;;;13.73;;
34978;SDS011;21185;50.978;13.720;2023-03-01T08:12:13;36.80;;;14.02;;
34978;SDS011;21185;50.978;13.720;2023-03-01T08:17:17;26.48;;;11.25;;
34978;SDS011;21185;50.978;13.720;2023-03-01T08:22:19;35.97;;;12.90;;
34978;SDS011;21185;50.978;13.720;2023-03-01T08:27:21;30.55;;;13.23;;
34978;SDS011;21185;50.978;13.720;2023-03-01T08:32:25;37.53;;;14.52;;
34978;SDS011;21185;50.978;13.720;2023-03-01T08:37:27;33.67;;;13.40;;
34978;SDS011;21185;50.978;13.720;2023-03-01T08:42:32;29.67;;;12.88;;
34978;SDS011;21185;50.978;13.720;2023-03-01T08:47:34;29.35;;;11.77;;
34978;SDS011;21185;50.978;13.720;2023-03-01T08:52:36;22.48;;;10.93;;
34978;SDS011;21185;50.978;13.720;2023-03-01T08:57:38;34.50;;;12.88;;
34978;SDS011;21185;50.978;13.720;2023-03-01T09:02:40;32.65;;;14.20;;
34978;SDS011;21185;50.978;13.720;2023-03-01T09:07:42;26.83;;;12.50;;
34978;SDS011;21185;50.978;13.720;2023-03-01T09:12:44;28.73;;;12.20;;
34978;SDS011;21185;50.978;13.720;2023-03-01T09:17:46;30.02;;;14.18;;
34978;SDS011;21185;50.978;13.720;2023-03-01T09:22:48;30.77;;;15.18;;
34978;SDS011;21185;50.978;13.720;2023-03-01T09:27:53;34.63;;;15.20;;
34978;SDS011;21185;50.978;13.720;2023-03-01T09:32:56;32.13;;;14.10;;
34978;SDS011;21185;50.978;13.720;2023-03-01T09:37:58;31.13;;;14.05;;
34978;SDS011;21185;50.978;13.720;2023-03-01T09:43:07;31.02;;;14.05;;
34978;SDS011;21185;50.978;13.720;2023-03-01T09:48:21;30.75;;;13.68;;
34978;SDS011;21185;50.978;13.720;2023-03-01T09:53:31;35.13;;;14.32;;
34978;SDS011;21185;50.978;13.720;2023-03-01T10:04:23;36.72;;;13.50;;
34978;SDS011;21185;50.978;13.720;2023-03-01T10:09:43;23.77;;;11.52;;
34978;SDS011;21185;50.978;13.720;2023-03-01T10:25:30;36.45;;;13.32;;
34978;SDS011;21185;50.978;13.720;2023-03-01T10:30:55;26.35;;;12.88;;
34978;SDS011;21185;50.978;13.720;2023-03-01T10:36:00;26.08;;;12.50;;
34978;SDS011;21185;50.978;13.720;2023-03-01T10:41:06;23.75;;;11.15;;
34978;SDS011;21185;50.978;13.720;2023-03-01T10:46:21;25.27;;;12.32;;
34978;SDS011;21185;50.978;13.720;2023-03-01T10:51:25;28.85;;;12.82;;
34978;SDS011;21185;50.978;13.720;2023-03-01T10:56:27;35.70;;;13.55;;
34978;SDS011;21185;50.978;13.720;2023-03-01T11:01:33;47.80;;;16.10;;
34978;SDS011;21185;50.978;13.720;2023-03-01T11:06:38;32.42;;;13.85;;
34978;SDS011;21185;50.978;13.720;2023-03-01T11:11:41;26.98;;;12.30;;
34978;SDS011;21185;50.978;13.720;2023-03-01T11:16:45;21.70;;;10.75;;
34978;SDS011;21185;50.978;13.720;2023-03-01T11:21:54;24.40;;;11.93;;
34978;SDS011;21185;50.978;13.720;2023-03-01T11:27:04;28.48;;;12.88;;
34978;SDS011;21185;50.978;13.720;2023-03-01T11:32:17;30.90;;;13.75;;
34978;SDS011;21185;50.978;13.720;2023-03-01T11:37:35;25.83;;;12.02;;
34978;SDS011;21185;50.978;13.720;2023-03-01T11:43:01;28.42;;;11.50;;
34978;SDS011;21185;50.978;13.720;2023-03-01T12:09:38;20.55;;;9.27;;
34978;SDS011;21185;50.978;13.720;2023-03-01T12:25:16;26.25;;;10.82;;
34978;SDS011;21185;50.978;13.720;2023-03-01T12:30:57;20.05;;;9.50;;
34978;SDS011;21185;50.978;13.720;2023-03-01T12:51:58;25.20;;;11.20;;
34978;SDS011;21185;50.978;13.720;2023-03-01T13:02:41;26.30;;;12.45;;
34978;SDS011;21185;50.978;13.720;2023-03-01T13:13:43;27.13;;;11.10;;
34978;SDS011;21185;50.978;13.720;2023-03-01T13:18:45;21.88;;;9.75;;
34978;SDS011;21185;50.978;13.720;2023-03-01T13:23:49;29.92;;;10.80;;
34978;SDS011;21185;50.978;13.720;2023-03-01T13:28:55;34.78;;;11.63;;
34978;SDS011;21185;50.978;13.720;2023-03-01T13:33:59;24.45;;;10.65;;
34978;SDS011;21185;50.978;13.720;2023-03-01T13:39:26;31.17;;;10.98;;
34978;SDS011;21185;50.978;13.720;2023-03-01T13:44:42;19.13;;;9.63;;
34978;SDS011;21185;50.978;13.720;2023-03-01T13:50:01;25.42;;;10.25;;
34978;SDS011;21185;50.978;13.720;2023-03-01T13:55:06;19.08;;;9.38;;
34978;SDS011;21185;50.978;13.720;2023-03-01T14:05:35;29.17;;;11.35;;
34978;SDS011;21185;50.978;13.720;2023-03-01T14:10:44;26.75;;;11.38;;
34978;SDS011;21185;50.978;13.720;2023-03-01T14:16:20;27.60;;;10.98;;
34978;SDS011;21185;50.978;13.720;2023-03-01T14:21:36;27.77;;;11.52;;
34978;SDS011;21185;50.978;13.720;2023-03-01T14:26:38;21.40;;;10.70;;
34978;SDS011;21185;50.978;13.720;2023-03-01T14:31:40;20.98;;;9.90;;
34978;SDS011;21185;50.978;13.720;2023-03-01T14:36:54;23.63;;;10.52;;
34978;SDS011;21185;50.978;13.720;2023-03-01T14:41:56;24.85;;;10.52;;
34978;SDS011;21185;50.978;13.720;2023-03-01T14:47:25;19.58;;;10.25;;
34978;SDS011;21185;50.978;13.720;2023-03-01T14:52:36;28.52;;;9.15;;
34978;SDS011;21185;50.978;13.720;2023-03-01T14:57:42;33.65;;;15.52;;
34978;SDS011;21185;50.978;13.720;2023-03-01T15:02:47;24.38;;;9.95;;
34978;SDS011;21185;50.978;13.720;2023-03-01T15:07:51;33.75;;;11.70;;
34978;SDS011;21185;50.978;13.720;2023-03-01T15:12:54;28.55;;;11.40;;
34978;SDS011;21185;50.978;13.720;2023-03-01T15:17:57;30.83;;;11.65;;
34978;SDS011;21185;50.978;13.720;2023-03-01T15:23:01;25.88;;;12.57;;
34978;SDS011;21185;50.978;13.720;2023-03-01T15:28:04;24.60;;;11.13;;
34978;SDS011;21185;50.978;13.720;2023-03-01T15:33:16;23.67;;;10.30;;
34978;SDS011;21185;50.978;13.720;2023-03-01T15:43:54;21.20;;;9.43;;
34978;SDS011;21185;50.978;13.720;2023-03-01T15:49:21;28.17;;;10.68;;
34978;SDS011;21185;50.978;13.720;2023-03-01T15:54:26;19.48;;;9.30;;
34978;SDS011;21185;50.978;13.720;2023-03-01T15:59:29;24.95;;;9.73;;
34978;SDS011;21185;50.978;13.720;2023-03-01T16:04:31;26.48;;;10.85;;
34978;SDS011;21185;50.978;13.720;2023-03-01T16:09:33;23.20;;;10.20;;
34978;SDS011;21185;50.978;13.720;2023-03-01T16:14:34;18.08;;;8.73;;
34978;SDS011;21185;50.978;13.720;2023-03-01T16:19:37;21.00;;;8.55;;
34978;SDS011;21185;50.978;13.720;2023-03-01T16:24:40;24.85;;;9.65;;
34978;SDS011;21185;50.978;13.720;2023-03-01T16:29:42;22.27;;;8.95;;
34978;SDS011;21185;50.978;13.720;2023-03-01T16:34:44;24.00;;;9.18;;
34978;SDS011;21185;50.978;13.720;2023-03-01T16:39:49;27.73;;;10.43;;
34978;SDS011;21185;50.978;13.720;2023-03-01T16:44:55;63.40;;;18.58;;
34978;SDS011;21185;50.978;13.720;2023-03-01T16:49:57;80.07;;;21.60;;
34978;SDS011;21185;50.978;13.720;2023-03-01T16:54:59;73.43;;;25.35;;
34978;SDS011;21185;50.978;13.720;2023-03-01T17:00:02;84.18;;;22.83;;
34978;SDS011;21185;50.978;13.720;2023-03-01T17:05:09;73.93;;;22.00;;
34978;SDS011;21185;50.978;13.720;2023-03-01T17:10:13;85.57;;;23.73;;
34978;SDS011;21185;50.978;13.720;2023-03-01T17:15:15;53.90;;;18.80;;
34978;SDS011;21185;50.978;13.720;2023-03-01T17:20:17;54.45;;;17.77;;
34978;SDS011;21185;50.978;13.720;2023-03-01T17:25:19;49.95;;;19.70;;
34978;SDS011;21185;50.978;13.720;2023-03-01T17:30:21;54.03;;;19.40;;
34978;SDS011;21185;50.978;13.720;2023-03-01T17:35:23;54.28;;;19.08;;
34978;SDS011;21185;50.978;13.720;2023-03-01T17:40:25;48.85;;;17.38;;
34978;SDS011;21185;50.978;13.720;2023-03-01T17:45:27;54.65;;;18.70;;
34978;SDS011;21185;50.978;13.720;2023-03-01T17:50:28;52.97;;;19.50;;
34978;SDS011;21185;50.978;13.720;2023-03-01T17:55:30;61.08;;;19.60;;
34978;SDS011;21185;50.978;13.720;2023-03-01T18:00:32;46.28;;;16.95;;
34978;SDS011;21185;50.978;13.720;2023-03-01T18:05:35;51.20;;;17.77;;
34978;SDS011;21185;50.978;13.720;2023-03-01T18:10:40;84.88;;;28.85;;
34978;SDS011;21185;50.978;13.720;2023-03-01T18:15:42;84.35;;;28.27;;
34978;SDS011;21185;50.978;13.720;2023-03-01T18:20:44;68.05;;;22.17;;
34978;SDS011;21185;50.978;13.720;2023-03-01T18:25:45;78.93;;;24.13;;
34978;SDS011;21185;50.978;13.720;2023-03-01T18:30:47;49.47;;;19.40;;
34978;SDS011;21185;50.978;13.720;2023-03-01T18:35:49;59.95;;;21.38;;
34978;SDS011;21185;50.978;13.720;2023-03-01T18:40:51;64.50;;;19.23;;
34978;SDS011;21185;50.978;13.720;2023-03-01T18:45:57;51.25;;;18.52;;
34978;SDS011;21185;50.978;13.720;2023-03-01T18:51:06;32.25;;;13.77;;
34978;SDS011;21185;50.978;13.720;2023-03-01T18:56:15;35.50;;;12.43;;
34978;SDS011;21185;50.978;13.720;2023-03-01T19:01:22;37.05;;;11.70;;
34978;SDS011;21185;50.978;13.720;2023-03-01T19:06:30;28.30;;;10.85;;
34978;SDS011;21185;50.978;13.720;2023-03-01T19:11:35;33.70;;;12.50;;
34978;SDS011;21185;50.978;13.720;2023-03-01T19:16:37;25.30;;;11.18;;
34978;SDS011;21185;50.978;13.720;2023-03-01T19:21:38;26.45;;;10.77;;
34978;SDS011;21185;50.978;13.720;2023-03-01T19:26:40;25.15;;;10.85;;
34978;SDS011;21185;50.978;13.720;2023-03-01T19:31:42;21.55;;;9.73;;
34978;SDS011;21185;50.978;13.720;2023-03-01T19:36:44;28.63;;;9.90;;
34978;SDS011;21185;50.978;13.720;2023-03-01T19:41:48;19.85;;;8.82;;
34978;SDS011;21185;50.978;13.720;2023-03-01T19:46:54;19.17;;;8.45;;
34978;SDS011;21185;50.978;13.720;2023-03-01T19:52:00;17.77;;;8.88;;
34978;SDS011;21185;50.978;13.720;2023-03-01T19:57:02;30.65;;;13.88;;
34978;SDS011;21185;50.978;13.720;2023-03-01T20:02:04;27.15;;;11.10;;
34978;SDS011;21185;50.978;13.720;2023-03-01T20:07:05;25.15;;;11.63;;
34978;SDS011;21185;50.978;13.720;2023-03-01T20:12:07;29.30;;;12.32;;
34978;SDS011;21185;50.978;13.720;2023-03-01T20:17:09;30.52;;;13.07;;
34978;SDS011;21185;50.978;13.720;2023-03-01T20:22:11;35.13;;;14.30;;
34978;SDS011;21185;50.978;13.720;2023-03-01T20:27:15;37.78;;;14.57;;
34978;SDS011;21185;50.978;13.720;2023-03-01T20:32:17;35.10;;;13.63;;
34978;SDS011;21185;50.978;13.720;2023-03-01T20:37:19;24.25;;;10.57;;
34978;SDS011;21185;50.978;13.720;2023-03-01T20:42:22;21.17;;;10.38;;
34978;SDS011;21185;50.978;13.720;2023-03-01T20:47:24;23.90;;;9.93;;
34978;SDS011;21185;50.978;13.720;2023-03-01T20:52:26;21.58;;;10.70;;
34978;SDS011;21185;50.978;13.720;2023-03-01T20:57:36;21.90;;;10.45;;
34978;SDS011;21185;50.978;13.720;2023-03-01T21:02:38;28.08;;;11.30;;
34978;SDS011;21185;50.978;13.720;2023-03-01T21:07:40;20.92;;;9.52;;
34978;SDS011;21185;50.978;13.720;2023-03-01T21:12:43;21.70;;;9.68;;
34978;SDS011;21185;50.978;13.720;2023-03-01T21:17:45;20.20;;;9.60;;
34978;SDS011;21185;50.978;13.720;2023-03-01T21:22:46;22.67;;;10.23;;
34978;SDS011;21185;50.978;13.720;2023-03-01T21:27:48;22.05;;;9.70;;
34978;SDS011;21185;50.978;13.720;2023-03-01T21:32:50;23.17;;;9.73;;
34978;SDS011;21185;50.978;13.720;2023-03-01T21:37:52;29.58;;;9.93;;
34978;SDS011;21185;50.978;13.720;2023-03-01T21:42:54;23.15;;;9.65;;
34978;SDS011;21185;50.978;13.720;2023-03-01T21:47:56;20.80;;;10.25;;
34978;SDS011;21185;50.978;13.720;2023-03-01T21:52:58;18.75;;;8.75;;
34978;SDS011;21185;50.978;13.720;2023-03-01T21:58:00;22.08;;;9.15;;
34978;SDS011;21185;50.978;13.720;2023-03-01T22:03:02;26.02;;;10.75;;
34978;SDS011;21185;50.978;13.720;2023-03-01T22:08:04;22.30;;;9.20;;
34978;SDS011;21185;50.978;13.720;2023-03-01T22:13:06;25.88;;;9.68;;
34978;SDS011;21185;50.978;13.720;2023-03-01T22:18:08;21.80;;;9.90;;
34978;SDS011;21185;50.978;13.720;2023-03-01T22:23:11;20.80;;;9.73;;
34978;SDS011;21185;50.978;13.720;2023-03-01T22:28:13;23.25;;;10.10;;
34978;SDS011;21185;50.978;13.720;2023-03-01T22:33:15;23.48;;;10.93;;
34978;SDS011;21185;50.978;13.720;2023-03-01T22:38:17;26.67;;;12.10;;
34978;SDS011;21185;50.978;13.720;2023-03-01T22:43:19;17.67;;;9.60;;
34978;SDS011;21185;50.978;13.720;2023-03-01T22:48:22;22.83;;;10.27;;
34978;SDS011;21185;50.978;13.720;2023-03-01T22:53:26;26.13;;;11.00;;
34978;SDS011;21185;50.978;13.720;2023-03-01T22:58:29;32.72;;;12.13;;
34978;SDS011;21185;50.978;13.720;2023-03-01T23:03:31;28.40;;;12.05;;
34978;SDS011;21185;50.978;13.720;2023-03-01T23:08:34;31.50;;;12.90;;
34978;SDS011;21185;50.978;13.720;2023-03-01T23:13:37;31.20;;;12.55;;
34978;SDS011;21185;50.978;13.720;2023-03-01T23:18:39;22.17;;;9.82;;
34978;SDS011;21185;50.978;13.720;2023-03-01T23:23:42;26.23;;;10.30;;
34978;SDS011;21185;50.978;13.720;2023-03-01T23:28:44;19.33;;;9.57;;
34978;SDS011;21185;50.978;13.720;2023-03-01T23:33:47;24.52;;;9.50;;
34978;SDS011;21185;50.978;13.720;2023-03-01T23:38:51;24.48;;;10.18;;
34978;SDS011;21185;50.978;13.720;2023-03-01T23:43:58;26.25;;;10.43;;
34978;SDS011;21185;50.978;13.720;2023-03-01T23:49:01;23.92;;;8.90;;
34978;SDS011;21185;50.978;13.720;2023-03-01T23:54:05;21.63;;;9.48;;
34978;SDS011;21185;50.978;13.720;2023-03-01T23:59:12;22.90;;;9.98;;
